sensor_id;sensor_type;location;lat;lon;timestamp;pressure;altitude;pressure_sealevel;temperature;humidity
46199;BME280;31928;52.104;10.030;2023-07-16T00:00:36;99821.00;;;25.78;54.14
46199;BME280;31928;52.104;10.030;2023-07-16T00:03:03;99840.56;;;25.77;54.17
46199;BME280;31928;52.104;10.030;2023-07-16T00:05:30;99851.06;;;25.75;54.08
46199;BME280;31928;52.104;10.030;2023-07-16T00:07:57;99859.63;;;25.73;54.25
46199;BME280;31928;52.104;10.030;2023-07-16T00:10:23;99854.47;;;25.72;54.24
46199;BME280;31928;52.104;10.030;2023-07-16T00:12:50;99865.78;;;25.70;54.67
46199;BME280;31928;52.104;10.030;2023-07-16T00:15:18;99858.16;;;25.67;54.57
46199;BME280;31928;52.104;10.030;2023-07-16T00:17:44;99867.84;;;25.65;54.49
46199;BME280;31928;52.104;10.030;2023-07-16T00:20:12;99870.91;;;25.63;54.77
46199;BME280;31928;52.104;10.030;2023-07-16T00:22:38;99881.41;;;25.61;54.37
46199;BME280;31928;52.104;10.030;2023-07-16T00:25:06;99877.03;;;25.60;54.23
46199;BME280;31928;52.104;10.030;2023-07-16T00:27:33;99887.22;;;25.60;54.56
46199;BME280;31928;52.104;10.030;2023-07-16T00:30:00;99892.72;;;25.60;54.67
46199;BME280;31928;52.104;10.030;2023-07-16T00:32:27;99882.53;;;25.60;54.76
46199;BME280;31928;52.104;10.030;2023-07-16T00:34:53;99866.06;;;25.60;54.94
46199;BME280;31928;52.104;10.030;2023-07-16T00:37:20;99872.38;;;25.61;54.71
46199;BME280;31928;52.104;10.030;2023-07-16T00:39:47;99873.19;;;25.61;54.76
46199;BME280;31928;52.104;10.030;2023-07-16T00:42:14;99861.41;;;25.61;55.06
46199;BME280;31928;52.104;10.030;2023-07-16T00:44:40;99845.22;;;25.59;54.97
46199;BME280;31928;52.104;10.030;2023-07-16T00:47:08;99824.41;;;25.58;55.28
46199;BME280;31928;52.104;10.030;2023-07-16T00:49:35;99732.00;;;25.54;55.08
46199;BME280;31928;52.104;10.030;2023-07-16T00:52:03;99732.34;;;25.52;54.73
46199;BME280;31928;52.104;10.030;2023-07-16T00:54:31;99804.84;;;25.51;56.00
46199;BME280;31928;52.104;10.030;2023-07-16T00:56:58;99831.00;;;25.49;55.04
46199;BME280;31928;52.104;10.030;2023-07-16T00:59:25;99824.72;;;25.48;55.64
46199;BME280;31928;52.104;10.030;2023-07-16T01:01:51;99843.94;;;25.48;56.04
46199;BME280;31928;52.104;10.030;2023-07-16T01:04:18;99846.69;;;25.48;55.34
46199;BME280;31928;52.104;10.030;2023-07-16T01:06:48;99866.06;;;25.52;55.28
46199;BME280;31928;52.104;10.030;2023-07-16T01:09:20;99888.34;;;25.50;55.98
46199;BME280;31928;52.104;10.030;2023-07-16T01:11:48;99881.25;;;25.49;56.01
46199;BME280;31928;52.104;10.030;2023-07-16T01:14:17;99868.00;;;25.51;55.86
46199;BME280;31928;52.104;10.030;2023-07-16T01:16:45;99872.50;;;25.47;55.79
46199;BME280;31928;52.104;10.030;2023-07-16T01:19:11;99872.50;;;25.47;55.81
46199;BME280;31928;52.104;10.030;2023-07-16T01:21:51;99872.03;;;25.54;55.27
46199;BME280;31928;52.104;10.030;2023-07-16T01:27:34;99901.28;;;25.58;54.75
46199;BME280;31928;52.104;10.030;2023-07-16T01:30:08;99906.13;;;25.44;56.09
46199;BME280;31928;52.104;10.030;2023-07-16T01:32:38;99901.25;;;25.42;56.51
46199;BME280;31928;52.104;10.030;2023-07-16T01:35:06;99895.28;;;25.40;56.73
46199;BME280;31928;52.104;10.030;2023-07-16T01:37:34;99878.97;;;25.35;56.54
46199;BME280;31928;52.104;10.030;2023-07-16T01:40:02;99859.25;;;25.33;57.00
46199;BME280;31928;52.104;10.030;2023-07-16T01:42:29;99867.00;;;25.31;56.95
46199;BME280;31928;52.104;10.030;2023-07-16T01:44:56;99872.97;;;25.24;57.38
46199;BME280;31928;52.104;10.030;2023-07-16T01:47:24;99871.34;;;25.23;57.47
46199;BME280;31928;52.104;10.030;2023-07-16T01:49:56;99871.19;;;25.20;57.23
46199;BME280;31928;52.104;10.030;2023-07-16T01:52:22;99882.00;;;25.16;57.71
46199;BME280;31928;52.104;10.030;2023-07-16T01:54:49;99861.97;;;25.16;57.10
46199;BME280;31928;52.104;10.030;2023-07-16T01:57:16;99840.66;;;25.13;57.13
46199;BME280;31928;52.104;10.030;2023-07-16T01:59:43;99846.47;;;25.11;57.28
46199;BME280;31928;52.104;10.030;2023-07-16T02:02:09;99850.34;;;25.10;57.68
46199;BME280;31928;52.104;10.030;2023-07-16T02:04:36;99874.84;;;25.07;57.95
46199;BME280;31928;52.104;10.030;2023-07-16T02:07:03;99868.06;;;25.04;54.93
46199;BME280;31928;52.104;10.030;2023-07-16T02:09:30;99871.94;;;25.03;53.60
46199;BME280;31928;52.104;10.030;2023-07-16T02:11:57;99887.09;;;25.01;53.92
46199;BME280;31928;52.104;10.030;2023-07-16T02:14:24;99903.06;;;24.99;53.20
46199;BME280;31928;52.104;10.030;2023-07-16T02:16:51;99909.19;;;24.96;53.17
46199;BME280;31928;52.104;10.030;2023-07-16T02:19:17;99907.38;;;24.91;54.12
46199;BME280;31928;52.104;10.030;2023-07-16T02:21:44;99906.91;;;24.89;54.89
46199;BME280;31928;52.104;10.030;2023-07-16T02:24:11;99918.19;;;24.88;54.79
46199;BME280;31928;52.104;10.030;2023-07-16T02:26:39;99908.81;;;24.89;54.87
46199;BME280;31928;52.104;10.030;2023-07-16T02:29:06;99907.38;;;24.91;54.44
46199;BME280;31928;52.104;10.030;2023-07-16T02:31:36;99904.34;;;24.93;54.40
46199;BME280;31928;52.104;10.030;2023-07-16T02:34:03;99899.84;;;24.97;54.29
46199;BME280;31928;52.104;10.030;2023-07-16T02:36:29;99893.69;;;25.00;54.56
46199;BME280;31928;52.104;10.030;2023-07-16T02:38:56;99908.09;;;25.05;55.13
46199;BME280;31928;52.104;10.030;2023-07-16T02:41:23;99920.88;;;25.10;54.65
46199;BME280;31928;52.104;10.030;2023-07-16T02:43:59;99944.97;;;25.21;53.81
46199;BME280;31928;52.104;10.030;2023-07-16T02:46:25;99946.72;;;25.17;54.05
46199;BME280;31928;52.104;10.030;2023-07-16T02:48:52;99951.41;;;25.17;54.15
46199;BME280;31928;52.104;10.030;2023-07-16T02:51:19;99944.78;;;25.18;53.63
46199;BME280;31928;52.104;10.030;2023-07-16T02:53:45;99928.81;;;25.20;53.44
46199;BME280;31928;52.104;10.030;2023-07-16T02:56:12;99930.44;;;25.21;54.05
46199;BME280;31928;52.104;10.030;2023-07-16T02:58:39;99929.31;;;25.22;53.74
46199;BME280;31928;52.104;10.030;2023-07-16T03:01:06;99933.34;;;25.24;53.63
46199;BME280;31928;52.104;10.030;2023-07-16T03:03:33;99933.03;;;25.26;53.59
46199;BME280;31928;52.104;10.030;2023-07-16T03:06:02;99929.50;;;25.25;53.16
46199;BME280;31928;52.104;10.030;2023-07-16T03:08:28;99937.56;;;25.30;53.71
46199;BME280;31928;52.104;10.030;2023-07-16T03:10:57;99949.34;;;25.31;53.54
46199;BME280;31928;52.104;10.030;2023-07-16T03:13:24;99950.97;;;25.32;53.07
46199;BME280;31928;52.104;10.030;2023-07-16T03:15:50;99970.66;;;25.34;53.01
46199;BME280;31928;52.104;10.030;2023-07-16T03:18:20;99966.16;;;25.38;53.17
46199;BME280;31928;52.104;10.030;2023-07-16T03:20:47;99966.78;;;25.35;53.40
46199;BME280;31928;52.104;10.030;2023-07-16T03:23:13;99966.78;;;25.35;53.37
46199;BME280;31928;52.104;10.030;2023-07-16T03:25:40;99978.56;;;25.35;53.36
46199;BME280;31928;52.104;10.030;2023-07-16T03:28:07;99980.19;;;25.36;53.11
46199;BME280;31928;52.104;10.030;2023-07-16T03:30:33;99973.91;;;25.36;52.69
46199;BME280;31928;52.104;10.030;2023-07-16T03:33:00;99977.44;;;25.36;52.36
46199;BME280;31928;52.104;10.030;2023-07-16T03:35:27;99984.88;;;25.36;52.71
46199;BME280;31928;52.104;10.030;2023-07-16T03:37:53;99989.56;;;25.35;52.83
46199;BME280;31928;52.104;10.030;2023-07-16T03:40:24;99987.50;;;25.41;52.73
46199;BME280;31928;52.104;10.030;2023-07-16T03:42:52;99984.88;;;25.36;52.48
46199;BME280;31928;52.104;10.030;2023-07-16T03:45:19;99989.56;;;25.35;52.16
46199;BME280;31928;52.104;10.030;2023-07-16T03:47:46;99987.97;;;25.34;52.29
46199;BME280;31928;52.104;10.030;2023-07-16T03:50:12;99992.63;;;25.34;51.85
46199;BME280;31928;52.104;10.030;2023-07-16T03:52:39;99996.19;;;25.34;50.94
46199;BME280;31928;52.104;10.030;2023-07-16T03:55:06;100003.94;;;25.32;51.15
46199;BME280;31928;52.104;10.030;2023-07-16T03:57:33;99999.41;;;25.28;51.88
46199;BME280;31928;52.104;10.030;2023-07-16T04:00:00;100015.69;;;25.24;51.39
46199;BME280;31928;52.104;10.030;2023-07-16T04:02:27;100017.13;;;25.22;51.99
46199;BME280;31928;52.104;10.030;2023-07-16T04:04:54;100006.78;;;25.19;51.98
46199;BME280;31928;52.104;10.030;2023-07-16T04:07:20;100026.28;;;25.17;52.06
46199;BME280;31928;52.104;10.030;2023-07-16T04:09:47;100027.44;;;25.16;51.89
46199;BME280;31928;52.104;10.030;2023-07-16T04:12:14;100019.03;;;25.13;51.35
46199;BME280;31928;52.104;10.030;2023-07-16T04:14:40;100028.38;;;25.12;51.74
46199;BME280;31928;52.104;10.030;2023-07-16T04:17:07;100034.97;;;25.11;51.69
46199;BME280;31928;52.104;10.030;2023-07-16T04:19:34;100036.13;;;25.10;51.76
46199;BME280;31928;52.104;10.030;2023-07-16T04:22:00;100045.47;;;25.09;51.56
46199;BME280;31928;52.104;10.030;2023-07-16T04:24:27;100043.53;;;25.09;52.04
46199;BME280;31928;52.104;10.030;2023-07-16T04:26:54;100051.75;;;25.09;51.92
46199;BME280;31928;52.104;10.030;2023-07-16T04:29:21;100046.28;;;25.09;51.45
46199;BME280;31928;52.104;10.030;2023-07-16T04:31:48;100055.34;;;25.10;51.48
46199;BME280;31928;52.104;10.030;2023-07-16T04:34:14;100056.44;;;25.09;51.30
46199;BME280;31928;52.104;10.030;2023-07-16T04:36:42;100055.66;;;25.08;51.39
46199;BME280;31928;52.104;10.030;2023-07-16T04:39:09;100063.56;;;25.10;51.43
46199;BME280;31928;52.104;10.030;2023-07-16T04:41:36;100074.53;;;25.10;50.42
46199;BME280;31928;52.104;10.030;2023-07-16T04:44:03;100071.28;;;25.08;50.40
46199;BME280;31928;52.104;10.030;2023-07-16T04:46:29;100090.00;;;25.06;50.19
46199;BME280;31928;52.104;10.030;2023-07-16T04:48:56;100083.47;;;25.02;50.03
46199;BME280;31928;52.104;10.030;2023-07-16T04:51:23;100087.81;;;24.94;50.58
46199;BME280;31928;52.104;10.030;2023-07-16T04:53:50;100086.31;;;24.88;50.19
46199;BME280;31928;52.104;10.030;2023-07-16T04:56:16;100091.72;;;24.80;50.27
46199;BME280;31928;52.104;10.030;2023-07-16T04:58:44;100089.72;;;24.72;50.46
46199;BME280;31928;52.104;10.030;2023-07-16T05:01:11;100090.00;;;24.62;50.80
46199;BME280;31928;52.104;10.030;2023-07-16T05:03:38;100102.19;;;24.56;50.93
46199;BME280;31928;52.104;10.030;2023-07-16T05:06:04;100097.78;;;24.47;50.52
46199;BME280;31928;52.104;10.030;2023-07-16T05:08:31;100087.25;;;24.40;50.72
46199;BME280;31928;52.104;10.030;2023-07-16T05:10:58;100092.28;;;24.33;50.87
46199;BME280;31928;52.104;10.030;2023-07-16T05:13:25;100102.88;;;24.26;51.37
46199;BME280;31928;52.104;10.030;2023-07-16T05:15:52;100107.34;;;24.22;50.71
46199;BME280;31928;52.104;10.030;2023-07-16T05:18:19;100106.34;;;24.19;51.35
46199;BME280;31928;52.104;10.030;2023-07-16T05:20:49;100111.84;;;24.19;51.31
46199;BME280;31928;52.104;10.030;2023-07-16T05:23:15;100122.38;;;24.12;51.46
46199;BME280;31928;52.104;10.030;2023-07-16T05:25:46;100123.38;;;24.16;51.51
46199;BME280;31928;52.104;10.030;2023-07-16T05:28:15;100125.44;;;24.10;52.02
46199;BME280;31928;52.104;10.030;2023-07-16T05:30:41;100130.59;;;24.12;52.24
46199;BME280;31928;52.104;10.030;2023-07-16T05:33:09;100131.13;;;24.14;52.63
46199;BME280;31928;52.104;10.030;2023-07-16T05:35:36;100137.59;;;24.18;52.39
46199;BME280;31928;52.104;10.030;2023-07-16T05:38:03;100139.41;;;24.22;50.96
46199;BME280;31928;52.104;10.030;2023-07-16T05:40:29;100137.97;;;24.24;51.54
46199;BME280;31928;52.104;10.030;2023-07-16T05:42:56;100143.34;;;24.29;51.30
46199;BME280;31928;52.104;10.030;2023-07-16T05:45:22;100146.63;;;24.31;50.86
46199;BME280;31928;52.104;10.030;2023-07-16T05:47:49;100144.06;;;24.35;50.31
46199;BME280;31928;52.104;10.030;2023-07-16T05:50:16;100141.53;;;24.38;51.16
46199;BME280;31928;52.104;10.030;2023-07-16T05:52:43;100151.88;;;24.41;49.75
46199;BME280;31928;52.104;10.030;2023-07-16T05:55:10;100148.53;;;24.44;49.87
46199;BME280;31928;52.104;10.030;2023-07-16T05:57:36;100157.25;;;24.46;49.41
46199;BME280;31928;52.104;10.030;2023-07-16T06:00:03;100158.69;;;24.44;49.55
46199;BME280;31928;52.104;10.030;2023-07-16T06:02:31;100162.75;;;24.46;48.63
46199;BME280;31928;52.104;10.030;2023-07-16T06:04:57;100167.09;;;24.47;49.22
46199;BME280;31928;52.104;10.030;2023-07-16T06:07:24;100166.78;;;24.49;48.30
46199;BME280;31928;52.104;10.030;2023-07-16T06:09:51;100172.28;;;24.49;48.68
46199;BME280;31928;52.104;10.030;2023-07-16T06:12:17;100169.22;;;24.50;48.48
46199;BME280;31928;52.104;10.030;2023-07-16T06:14:44;100162.94;;;24.50;48.37
46199;BME280;31928;52.104;10.030;2023-07-16T06:17:10;100162.16;;;24.49;47.26
46199;BME280;31928;52.104;10.030;2023-07-16T06:19:37;100166.47;;;24.50;48.43
46199;BME280;31928;52.104;10.030;2023-07-16T06:22:04;100163.16;;;24.53;48.10
46199;BME280;31928;52.104;10.030;2023-07-16T06:24:30;100162.84;;;24.55;47.86
46199;BME280;31928;52.104;10.030;2023-07-16T06:26:57;100160.88;;;24.55;48.43
46199;BME280;31928;52.104;10.030;2023-07-16T06:29:24;100177.34;;;24.55;47.70
46199;BME280;31928;52.104;10.030;2023-07-16T06:31:58;100185.66;;;24.64;47.33
46199;BME280;31928;52.104;10.030;2023-07-16T06:34:25;100177.22;;;24.60;46.61
46199;BME280;31928;52.104;10.030;2023-07-16T06:36:52;100185.13;;;24.62;46.52
46199;BME280;31928;52.104;10.030;2023-07-16T06:39:19;100192.56;;;24.61;45.79
46199;BME280;31928;52.104;10.030;2023-07-16T06:41:46;100194.69;;;24.64;46.15
46199;BME280;31928;52.104;10.030;2023-07-16T06:44:13;100189.72;;;24.66;45.88
46199;BME280;31928;52.104;10.030;2023-07-16T06:46:40;100198.44;;;24.68;46.00
46199;BME280;31928;52.104;10.030;2023-07-16T06:49:07;100203.31;;;24.71;44.43
46199;BME280;31928;52.104;10.030;2023-07-16T06:51:34;100199.94;;;24.74;45.08
46199;BME280;31928;52.104;10.030;2023-07-16T06:54:01;100200.63;;;24.80;45.36
46199;BME280;31928;52.104;10.030;2023-07-16T06:56:27;100201.94;;;24.82;44.25
46199;BME280;31928;52.104;10.030;2023-07-16T06:58:54;100208.75;;;24.84;43.99
46199;BME280;31928;52.104;10.030;2023-07-16T07:01:20;100201.19;;;24.90;43.77
46199;BME280;31928;52.104;10.030;2023-07-16T07:03:47;100193.50;;;24.92;43.70
46199;BME280;31928;52.104;10.030;2023-07-16T07:06:14;100203.03;;;24.94;43.17
46199;BME280;31928;52.104;10.030;2023-07-16T07:08:41;100204.34;;;24.97;43.09
46199;BME280;31928;52.104;10.030;2023-07-16T07:11:08;100210.31;;;24.99;43.23
46199;BME280;31928;52.104;10.030;2023-07-16T07:13:34;100210.50;;;25.02;42.98
46199;BME280;31928;52.104;10.030;2023-07-16T07:16:01;100218.97;;;25.06;43.23
46199;BME280;31928;52.104;10.030;2023-07-16T07:18:28;100205.75;;;25.08;41.83
46199;BME280;31928;52.104;10.030;2023-07-16T07:20:54;100215.78;;;25.12;41.74
46199;BME280;31928;52.104;10.030;2023-07-16T07:23:21;100212.75;;;25.14;41.41
46199;BME280;31928;52.104;10.030;2023-07-16T07:25:49;100221.78;;;25.14;41.72
46199;BME280;31928;52.104;10.030;2023-07-16T07:28:19;100204.19;;;25.15;41.02
46199;BME280;31928;52.104;10.030;2023-07-16T07:30:46;100209.03;;;25.18;41.76
46199;BME280;31928;52.104;10.030;2023-07-16T07:33:13;100198.91;;;25.19;41.42
46199;BME280;31928;52.104;10.030;2023-07-16T07:35:39;100203.75;;;25.22;39.40
46199;BME280;31928;52.104;10.030;2023-07-16T07:38:06;100205.53;;;25.26;39.76
46199;BME280;31928;52.104;10.030;2023-07-16T07:40:33;100201.25;;;25.34;40.25
46199;BME280;31928;52.104;10.030;2023-07-16T07:42:59;100211.63;;;25.37;40.80
46199;BME280;31928;52.104;10.030;2023-07-16T07:45:26;100210.97;;;25.40;39.81
46199;BME280;31928;52.104;10.030;2023-07-16T07:47:53;100213.59;;;25.44;39.83
46199;BME280;31928;52.104;10.030;2023-07-16T07:50:20;100215.22;;;25.45;39.57
46199;BME280;31928;52.104;10.030;2023-07-16T07:52:47;100220.88;;;25.49;39.44
46199;BME280;31928;52.104;10.030;2023-07-16T07:55:13;100198.75;;;25.45;39.19
46199;BME280;31928;52.104;10.030;2023-07-16T07:57:40;100214.91;;;25.47;39.77
46199;BME280;31928;52.104;10.030;2023-07-16T08:00:07;100211.34;;;25.46;39.13
46199;BME280;31928;52.104;10.030;2023-07-16T08:02:38;100230.56;;;25.46;39.06
46199;BME280;31928;52.104;10.030;2023-07-16T08:05:06;100222.69;;;25.53;39.62
46199;BME280;31928;52.104;10.030;2023-07-16T08:07:33;100233.06;;;25.56;39.32
46199;BME280;31928;52.104;10.030;2023-07-16T08:09:59;100220.31;;;25.60;38.77
46199;BME280;31928;52.104;10.030;2023-07-16T08:12:26;100218.75;;;25.68;39.02
46199;BME280;31928;52.104;10.030;2023-07-16T08:14:53;100221.06;;;25.74;38.47
46199;BME280;31928;52.104;10.030;2023-07-16T08:17:19;100233.56;;;25.80;37.95
46199;BME280;31928;52.104;10.030;2023-07-16T08:19:49;100222.91;;;25.87;37.51
46199;BME280;31928;52.104;10.030;2023-07-16T08:22:16;100228.94;;;25.98;37.19
46199;BME280;31928;52.104;10.030;2023-07-16T08:24:42;100219.13;;;26.05;36.68
46199;BME280;31928;52.104;10.030;2023-07-16T08:27:09;100228.22;;;26.14;37.10
46199;BME280;31928;52.104;10.030;2023-07-16T08:29:36;100224.66;;;26.22;37.56
46199;BME280;31928;52.104;10.030;2023-07-16T08:32:03;100224.19;;;26.28;36.48
46199;BME280;31928;52.104;10.030;2023-07-16T08:34:30;100227.03;;;26.37;37.06
46199;BME280;31928;52.104;10.030;2023-07-16T08:36:56;100231.22;;;26.43;36.32
46199;BME280;31928;52.104;10.030;2023-07-16T08:39:23;100229.31;;;26.52;35.65
46199;BME280;31928;52.104;10.030;2023-07-16T08:41:52;100243.88;;;26.61;34.41
46199;BME280;31928;52.104;10.030;2023-07-16T08:44:20;100219.81;;;26.66;35.17
46199;BME280;31928;52.104;10.030;2023-07-16T08:46:47;100234.03;;;26.68;35.02
46199;BME280;31928;52.104;10.030;2023-07-16T08:49:17;100228.72;;;26.80;36.37
46199;BME280;31928;52.104;10.030;2023-07-16T08:51:47;100222.25;;;26.84;35.65
46199;BME280;31928;52.104;10.030;2023-07-16T08:54:14;100230.50;;;26.93;35.87
46199;BME280;31928;52.104;10.030;2023-07-16T14:59:27;100322.75;;;31.17;25.18
46199;BME280;31928;52.104;10.030;2023-07-16T15:01:54;100329.81;;;31.02;24.47
46199;BME280;31928;52.104;10.030;2023-07-16T15:04:21;100318.38;;;30.92;25.38
46199;BME280;31928;52.104;10.030;2023-07-16T15:06:48;100325.53;;;30.81;24.91
46199;BME280;31928;52.104;10.030;2023-07-16T15:09:16;100327.72;;;30.76;25.07
46199;BME280;31928;52.104;10.030;2023-07-16T15:11:43;100317.00;;;30.74;25.33
46199;BME280;31928;52.104;10.030;2023-07-16T15:14:09;100331.28;;;30.76;25.46
46199;BME280;31928;52.104;10.030;2023-07-16T15:16:38;100320.22;;;30.76;24.71
46199;BME280;31928;52.104;10.030;2023-07-16T15:19:05;100308.47;;;30.79;25.16
46199;BME280;31928;52.104;10.030;2023-07-16T15:21:32;100321.59;;;30.82;25.77
46199;BME280;31928;52.104;10.030;2023-07-16T15:23:59;100322.06;;;30.84;24.73
46199;BME280;31928;52.104;10.030;2023-07-16T15:26:25;100320.91;;;30.85;24.88
46199;BME280;31928;52.104;10.030;2023-07-16T15:28:54;100311.44;;;30.86;25.06
46199;BME280;31928;52.104;10.030;2023-07-16T15:31:21;100316.97;;;30.86;25.04
46199;BME280;31928;52.104;10.030;2023-07-16T15:33:54;100314.34;;;30.90;25.34
46199;BME280;31928;52.104;10.030;2023-07-16T15:36:22;100308.88;;;30.93;25.41
46199;BME280;31928;52.104;10.030;2023-07-16T15:38:49;100309.88;;;30.97;25.67
46199;BME280;31928;52.104;10.030;2023-07-16T15:41:17;100316.41;;;31.04;25.34
46199;BME280;31928;52.104;10.030;2023-07-16T15:43:46;100319.78;;;31.10;24.62
46199;BME280;31928;52.104;10.030;2023-07-16T15:46:16;100312.81;;;31.16;24.84
46199;BME280;31928;52.104;10.030;2023-07-16T15:48:44;100309.78;;;31.21;24.31
46199;BME280;31928;52.104;10.030;2023-07-16T15:51:13;100313.03;;;31.23;24.50
46199;BME280;31928;52.104;10.030;2023-07-16T15:53:41;100315.09;;;31.26;24.43
46199;BME280;31928;52.104;10.030;2023-07-16T15:56:11;100318.00;;;31.29;24.93
46199;BME280;31928;52.104;10.030;2023-07-16T15:58:38;100323.41;;;31.26;24.14
46199;BME280;31928;52.104;10.030;2023-07-16T16:01:05;100321.44;;;31.26;24.24
46199;BME280;31928;52.104;10.030;2023-07-16T16:03:33;100313.94;;;31.27;24.83
46199;BME280;31928;52.104;10.030;2023-07-16T16:06:00;100317.88;;;31.26;24.20
46199;BME280;31928;52.104;10.030;2023-07-16T16:08:26;100313.94;;;31.27;23.85
46199;BME280;31928;52.104;10.030;2023-07-16T16:10:53;100312.81;;;31.28;24.68
46199;BME280;31928;52.104;10.030;2023-07-16T16:13:22;100322.34;;;31.30;24.40
46199;BME280;31928;52.104;10.030;2023-07-16T16:15:49;100313.72;;;31.32;23.97
46199;BME280;31928;52.104;10.030;2023-07-16T16:18:16;100314.16;;;31.34;24.05
46199;BME280;31928;52.104;10.030;2023-07-16T16:20:45;100321.31;;;31.35;23.93
46199;BME280;31928;52.104;10.030;2023-07-16T16:23:12;100325.22;;;31.34;23.79
46199;BME280;31928;52.104;10.030;2023-07-16T16:25:40;100318.78;;;31.30;24.06
46199;BME280;31928;52.104;10.030;2023-07-16T16:28:07;100328.97;;;31.26;23.76
46199;BME280;31928;52.104;10.030;2023-07-16T16:30:36;100321.78;;;31.25;24.27
46199;BME280;31928;52.104;10.030;2023-07-16T16:33:03;100330.47;;;31.23;23.79
46199;BME280;31928;52.104;10.030;2023-07-16T16:35:32;100320.88;;;31.21;23.86
46199;BME280;31928;52.104;10.030;2023-07-16T16:37:59;100329.06;;;31.17;23.85
46199;BME280;31928;52.104;10.030;2023-07-16T16:40:26;100331.75;;;31.14;23.73
46199;BME280;31928;52.104;10.030;2023-07-16T16:42:53;100330.84;;;31.10;23.45
46199;BME280;31928;52.104;10.030;2023-07-16T16:45:20;100322.78;;;31.05;23.71
46199;BME280;31928;52.104;10.030;2023-07-16T16:47:46;100330.97;;;31.02;23.99
46199;BME280;31928;52.104;10.030;2023-07-16T16:50:13;100321.72;;;30.98;24.05
46199;BME280;31928;52.104;10.030;2023-07-16T16:52:41;100327.16;;;30.94;24.59
46199;BME280;31928;52.104;10.030;2023-07-16T16:55:08;100328.97;;;30.90;24.75
46199;BME280;31928;52.104;10.030;2023-07-16T16:57:35;100325.75;;;30.88;24.42
46199;BME280;31928;52.104;10.030;2023-07-16T17:00:03;100334.88;;;30.89;24.42
46199;BME280;31928;52.104;10.030;2023-07-16T17:02:30;100326.91;;;30.87;24.94
46199;BME280;31928;52.104;10.030;2023-07-16T17:04:57;100335.56;;;30.86;24.62
46199;BME280;31928;52.104;10.030;2023-07-16T17:07:25;100334.75;;;30.85;25.02
46199;BME280;31928;52.104;10.030;2023-07-16T17:09:51;100333.16;;;30.84;24.66
46199;BME280;31928;52.104;10.030;2023-07-16T17:12:18;100331.53;;;30.83;25.09
46199;BME280;31928;52.104;10.030;2023-07-16T17:14:45;100337.44;;;30.82;25.03
46199;BME280;31928;52.104;10.030;2023-07-16T17:17:12;100337.75;;;30.80;25.31
46199;BME280;31928;52.104;10.030;2023-07-16T17:19:41;100330.63;;;30.79;25.57
46199;BME280;31928;52.104;10.030;2023-07-16T17:22:08;100336.38;;;30.74;25.70
46199;BME280;31928;52.104;10.030;2023-07-16T17:24:35;100338.22;;;30.70;25.21
46199;BME280;31928;52.104;10.030;2023-07-16T17:27:02;100344.13;;;30.69;25.55
46199;BME280;31928;52.104;10.030;2023-07-16T17:29:31;100348.81;;;30.68;25.42
46199;BME280;31928;52.104;10.030;2023-07-16T17:31:58;100352.88;;;30.59;25.55
46199;BME280;31928;52.104;10.030;2023-07-16T17:34:25;100353.09;;;30.54;25.64
46199;BME280;31928;52.104;10.030;2023-07-16T17:36:51;100353.31;;;30.49;25.44
46199;BME280;31928;52.104;10.030;2023-07-16T17:39:18;100352.25;;;30.41;25.83
46199;BME280;31928;52.104;10.030;2023-07-16T17:41:45;100353.94;;;30.34;25.98
46199;BME280;31928;52.104;10.030;2023-07-16T17:44:12;100348.97;;;30.28;26.43
46199;BME280;31928;52.104;10.030;2023-07-16T17:46:40;100350.34;;;30.22;26.16
46199;BME280;31928;52.104;10.030;2023-07-16T17:49:07;100353.34;;;30.17;26.57
46199;BME280;31928;52.104;10.030;2023-07-16T17:51:33;100350.31;;;30.10;26.55
46199;BME280;31928;52.104;10.030;2023-07-16T17:54:00;100356.41;;;30.03;26.56
46199;BME280;31928;52.104;10.030;2023-07-16T17:56:27;100352.25;;;29.97;26.90
46199;BME280;31928;52.104;10.030;2023-07-16T17:58:54;100364.66;;;29.91;27.05
46199;BME280;31928;52.104;10.030;2023-07-16T18:01:20;100364.38;;;29.84;27.37
46199;BME280;31928;52.104;10.030;2023-07-16T18:03:48;100358.56;;;29.77;27.39
46199;BME280;31928;52.104;10.030;2023-07-16T18:06:15;100363.06;;;29.70;27.53
46199;BME280;31928;52.104;10.030;2023-07-16T18:08:42;100361.63;;;29.64;27.70
46199;BME280;31928;52.104;10.030;2023-07-16T18:11:09;100366.56;;;29.59;27.55
46199;BME280;31928;52.104;10.030;2023-07-16T18:13:36;100378.16;;;29.52;27.83
46199;BME280;31928;52.104;10.030;2023-07-16T18:16:03;100355.75;;;29.45;27.86
46199;BME280;31928;52.104;10.030;2023-07-16T18:18:30;100360.19;;;29.38;28.18
46199;BME280;31928;52.104;10.030;2023-07-16T18:20:58;100371.00;;;29.31;28.30
46199;BME280;31928;52.104;10.030;2023-07-16T18:23:32;100361.25;;;29.25;28.77
46199;BME280;31928;52.104;10.030;2023-07-16T18:25:58;100374.44;;;29.19;28.43
46199;BME280;31928;52.104;10.030;2023-07-16T18:28:25;100370.25;;;29.13;28.61
46199;BME280;31928;52.104;10.030;2023-07-16T18:30:55;100379.72;;;29.13;29.05
46199;BME280;31928;52.104;10.030;2023-07-16T18:33:22;100374.06;;;29.01;29.12
46199;BME280;31928;52.104;10.030;2023-07-16T18:35:55;100376.19;;;29.04;29.00
46199;BME280;31928;52.104;10.030;2023-07-16T18:38:21;100380.00;;;28.91;28.91
46199;BME280;31928;52.104;10.030;2023-07-16T18:40:49;100377.75;;;28.84;29.13
46199;BME280;31928;52.104;10.030;2023-07-16T18:43:16;100379.88;;;28.79;29.61
46199;BME280;31928;52.104;10.030;2023-07-16T18:45:43;100385.09;;;28.72;29.97
46199;BME280;31928;52.104;10.030;2023-07-16T18:48:10;100384.13;;;28.68;30.04